createdAt,value
2023-05-10T00:00:19.870Z,2.00
2023-05-10T00:01:22.572Z,1.77
2023-05-10T00:02:26.668Z,1.90
2023-05-10T00:03:29.972Z,2.30
2023-05-10T00:04:33.793Z,1.85
2023-05-10T00:05:36.726Z,2.20
2023-05-10T00:06:40.574Z,1.75
2023-05-10T00:07:46.024Z,2.08
2023-05-10T00:08:49.820Z,1.92
2023-05-10T00:09:52.853Z,1.85
2023-05-10T00:10:56.786Z,2.03
2023-05-10T00:11:59.868Z,1.98
2023-05-10T00:13:04.518Z,2.05
2023-05-10T00:14:07.583Z,1.88
2023-05-10T00:15:13.473Z,2.25
2023-05-10T00:16:16.644Z,2.20
2023-05-10T00:17:20.315Z,1.90
2023-05-10T00:20:28.779Z,1.70
2023-05-10T00:21:33.576Z,2.28
2023-05-10T00:22:36.583Z,2.10
2023-05-10T00:23:40.454Z,2.97
2023-05-10T00:24:43.083Z,2.63
2023-05-10T00:25:47.092Z,2.63
2023-05-10T00:26:49.896Z,2.97
2023-05-10T00:27:56.382Z,3.30
2023-05-10T00:28:59.764Z,3.13
2023-05-10T00:30:03.699Z,2.80
2023-05-10T00:31:10.464Z,3.08
2023-05-10T00:32:15.877Z,3.40
2023-05-10T00:33:20.489Z,3.83
2023-05-10T00:34:24.100Z,3.15
2023-05-10T00:35:27.975Z,3.67
2023-05-10T00:36:30.739Z,3.35
2023-05-10T00:37:34.737Z,3.65
2023-05-10T00:38:37.667Z,3.03
2023-05-10T00:39:41.303Z,2.92
2023-05-10T00:41:55.365Z,3.10
2023-05-10T00:42:59.420Z,2.63
2023-05-10T00:44:03.310Z,2.92
2023-05-10T00:45:07.606Z,2.75
2023-05-10T00:46:13.387Z,2.63
2023-05-10T00:47:17.019Z,2.88
2023-05-10T00:48:21.481Z,3.00
2023-05-10T00:49:24.421Z,3.10
2023-05-10T00:50:28.329Z,2.97
2023-05-10T00:51:32.240Z,2.92
2023-05-10T00:52:36.827Z,2.55
2023-05-10T00:53:39.802Z,2.53
2023-05-10T00:54:43.691Z,2.25
2023-05-10T00:55:47.215Z,2.50
2023-05-10T00:56:51.220Z,2.58
2023-05-10T00:57:54.612Z,2.90
2023-05-10T00:58:58.884Z,2.38
2023-05-10T01:00:03.077Z,2.78
2023-05-10T01:01:08.104Z,9.13
2023-05-10T01:02:14.417Z,9.02
2023-05-10T01:03:18.433Z,24.92
2023-05-10T01:04:26.875Z,22.20
2023-05-10T01:05:31.232Z,65.95
2023-05-10T01:06:34.149Z,19.60
2023-05-10T01:07:37.973Z,22.92
2023-05-10T01:08:41.149Z,9.10
2023-05-10T01:09:45.110Z,7.18
2023-05-10T01:10:50.307Z,4.50
2023-05-10T01:11:54.524Z,2.72
2023-05-10T01:12:58.077Z,2.60
2023-05-10T01:14:02.103Z,3.08
2023-05-10T01:15:07.015Z,2.55
2023-05-10T01:16:11.595Z,2.75
2023-05-10T01:17:17.402Z,2.13
2023-05-10T01:18:23.843Z,2.33
2023-05-10T01:19:29.231Z,2.70
2023-05-10T01:20:39.472Z,2.60
2023-05-10T01:21:54.535Z,1.90
2023-05-10T01:23:30.837Z,1.88
2023-05-10T01:24:47.690Z,1.80
2023-05-10T01:26:32.659Z,1.75
2023-05-10T01:28:01.032Z,1.77
2023-05-10T01:29:40.734Z,1.70
2023-05-10T01:31:05.409Z,1.80
2023-05-10T01:32:27.639Z,1.80
2023-05-10T01:34:42.063Z,1.77
2023-05-10T01:37:01.325Z,1.50
2023-05-10T01:38:13.459Z,2.00
2023-05-10T01:39:26.973Z,1.70
2023-05-10T01:40:34.856Z,1.70
2023-05-10T01:41:47.737Z,1.80
2023-05-10T01:42:54.735Z,1.70
2023-05-10T01:44:04.883Z,1.73
2023-05-10T01:45:16.176Z,1.77
2023-05-10T01:46:27.209Z,1.92
2023-05-10T01:47:37.251Z,1.83
2023-05-10T01:48:48.599Z,2.13
2023-05-10T01:49:53.681Z,1.90
2023-05-10T01:50:59.384Z,1.60
2023-05-10T01:52:08.413Z,1.80
2023-05-10T01:53:15.392Z,1.40
2023-05-10T01:54:20.793Z,1.92
2023-05-10T01:55:27.867Z,1.80
2023-05-10T01:56:34.647Z,1.80
2023-05-10T01:57:40.862Z,1.80
2023-05-10T01:58:46.848Z,1.77
2023-05-10T01:59:53.365Z,1.60
2023-05-10T02:00:57.223Z,1.80
2023-05-10T02:03:08.097Z,1.52
2023-05-10T02:04:14.035Z,1.60
2023-05-10T02:05:18.870Z,1.80
2023-05-10T02:06:24.728Z,1.70
2023-05-10T02:07:30.271Z,1.80
2023-05-10T02:08:38.448Z,1.60
2023-05-10T02:09:42.723Z,1.92
2023-05-10T02:10:49.115Z,1.90
2023-05-10T02:11:52.098Z,1.75
2023-05-10T02:12:57.538Z,2.00
2023-05-10T02:14:01.765Z,1.83
2023-05-10T02:15:09.491Z,1.73
2023-05-10T02:16:14.421Z,1.70
2023-05-10T02:17:19.868Z,1.73
2023-05-10T02:18:25.502Z,2.17
2023-05-10T02:19:31.447Z,1.85
2023-05-10T02:20:36.363Z,1.60
2023-05-10T02:21:41.782Z,1.60
2023-05-10T02:22:46.461Z,2.20
2023-05-10T02:23:53.762Z,1.70
2023-05-10T02:24:57.344Z,1.77
2023-05-10T02:27:07.563Z,1.80
2023-05-10T02:28:14.944Z,1.52
2023-05-10T02:29:18.614Z,1.92
2023-05-10T02:30:24.133Z,1.88
2023-05-10T02:31:27.649Z,1.65
2023-05-10T02:32:32.499Z,1.50
2023-05-10T02:33:37.339Z,1.90
2023-05-10T02:34:41.981Z,1.70
2023-05-10T02:35:45.239Z,1.75
2023-05-10T02:36:49.811Z,1.70
2023-05-10T02:37:52.729Z,1.67
2023-05-10T02:38:57.236Z,1.50
2023-05-10T02:40:00.440Z,1.70
2023-05-10T02:41:06.407Z,1.83
2023-05-10T02:42:09.760Z,1.80
2023-05-10T02:43:16.804Z,1.88
2023-05-10T02:44:21.250Z,1.98
2023-05-10T02:45:30.418Z,1.77
2023-05-10T02:46:33.303Z,1.55
2023-05-10T02:47:37.979Z,1.35
2023-05-10T02:48:42.658Z,1.63
2023-05-10T02:49:46.790Z,1.67
2023-05-10T02:50:52.689Z,1.42
2023-05-10T02:52:00.967Z,1.48
2023-05-10T02:53:11.098Z,1.80
2023-05-10T02:54:21.077Z,1.85
2023-05-10T02:55:33.623Z,1.58
2023-05-10T02:56:43.171Z,1.40
2023-05-10T02:57:59.930Z,1.52
2023-05-10T02:59:04.343Z,1.70
2023-05-10T03:00:09.008Z,2.30
2023-05-10T03:01:12.992Z,1.80
2023-05-10T03:02:15.682Z,1.80
2023-05-10T03:03:19.635Z,1.80
2023-05-10T03:04:25.805Z,1.80
2023-05-10T03:05:32.340Z,1.70
2023-05-10T03:06:38.041Z,1.80
2023-05-10T03:07:42.381Z,1.63
2023-05-10T03:08:45.891Z,1.70
2023-05-10T03:09:51.125Z,1.90
2023-05-10T03:11:03.550Z,2.15
2023-05-10T03:12:15.288Z,1.88
2023-05-10T03:13:30.404Z,1.98
2023-05-10T03:14:48.509Z,1.80
2023-05-10T03:16:00.844Z,1.70
2023-05-10T03:17:12.763Z,1.90
2023-05-10T03:18:22.695Z,1.92
2023-05-10T03:20:37.860Z,1.98
2023-05-10T03:21:47.639Z,1.67
2023-05-10T03:22:54.941Z,2.00
2023-05-10T03:24:02.511Z,1.70
2023-05-10T03:25:08.427Z,1.55
2023-05-10T03:26:21.637Z,2.05
2023-05-10T03:27:27.614Z,1.80
2023-05-10T03:28:34.174Z,2.00
2023-05-10T03:29:38.787Z,1.70
2023-05-10T03:30:44.035Z,1.80
2023-05-10T03:31:48.248Z,1.58
2023-05-10T03:32:52.922Z,1.73
2023-05-10T03:33:55.653Z,1.60
2023-05-10T03:35:09.602Z,1.65
2023-05-10T03:36:14.972Z,1.70
2023-05-10T03:37:17.677Z,1.90
2023-05-10T03:38:21.525Z,1.60
2023-05-10T03:39:24.305Z,2.63
2023-05-10T03:40:33.474Z,2.00
2023-05-10T03:41:36.571Z,1.65
2023-05-10T03:42:40.392Z,1.65
2023-05-10T03:43:43.127Z,1.80
2023-05-10T03:44:46.856Z,2.05
2023-05-10T03:45:49.739Z,1.70
2023-05-10T03:46:53.560Z,1.88
2023-05-10T03:47:56.735Z,1.90
2023-05-10T03:49:00.625Z,1.80
2023-05-10T03:50:05.309Z,1.70
2023-05-10T03:51:10.138Z,1.70
2023-05-10T03:52:13.331Z,1.90
2023-05-10T03:53:17.074Z,2.13
2023-05-10T03:54:19.845Z,1.58
2023-05-10T03:55:23.692Z,1.90
2023-05-10T03:56:27.155Z,2.00
2023-05-10T03:57:31.516Z,1.95
2023-05-10T03:58:34.806Z,2.15
2023-05-10T03:59:38.964Z,1.80
2023-05-10T04:00:46.196Z,1.88
2023-05-10T04:01:51.097Z,1.77
2023-05-10T04:02:53.912Z,1.90
2023-05-10T04:03:57.995Z,1.58
2023-05-10T04:05:00.947Z,1.63
2023-05-10T04:06:07.277Z,1.50
2023-05-10T04:07:11.699Z,1.88
2023-05-10T04:08:16.015Z,1.85
2023-05-10T04:09:18.829Z,1.50
2023-05-10T04:10:22.540Z,1.73
2023-05-10T04:11:26.001Z,1.90
2023-05-10T04:12:29.970Z,1.50
2023-05-10T04:13:32.785Z,1.70
2023-05-10T04:14:36.490Z,1.42
2023-05-10T04:16:42.563Z,1.45
2023-05-10T04:17:45.645Z,2.28
2023-05-10T04:18:49.455Z,1.50
2023-05-10T04:19:54.272Z,1.50
2023-05-10T04:20:58.083Z,1.70
2023-05-10T04:22:03.850Z,1.65
2023-05-10T04:23:07.604Z,1.48
2023-05-10T04:24:10.434Z,1.70
2023-05-10T04:25:14.294Z,1.60
2023-05-10T04:26:16.974Z,1.73
2023-05-10T04:27:20.994Z,1.58
2023-05-10T04:28:24.832Z,1.50
2023-05-10T04:30:31.674Z,1.58
2023-05-10T04:31:34.572Z,1.50
2023-05-10T04:32:38.423Z,1.50
2023-05-10T04:33:41.402Z,1.50
2023-05-10T04:34:45.096Z,1.70
2023-05-10T04:35:47.854Z,1.90
2023-05-10T04:36:52.102Z,1.55
2023-05-10T04:37:56.322Z,1.60
2023-05-10T04:39:00.074Z,1.63
2023-05-10T04:40:04.443Z,1.58
2023-05-10T04:41:09.357Z,1.50
2023-05-10T04:42:12.988Z,2.00
2023-05-10T04:43:16.988Z,1.90
2023-05-10T04:44:19.858Z,1.60
2023-05-10T04:45:23.797Z,1.55
2023-05-10T04:46:26.989Z,1.50
2023-05-10T04:47:30.735Z,1.30
2023-05-10T04:48:33.535Z,1.60
2023-05-10T04:49:37.527Z,1.50
2023-05-10T04:50:41.637Z,1.65
2023-05-10T04:51:45.470Z,1.58
2023-05-10T04:52:48.302Z,1.60
2023-05-10T04:54:05.247Z,1.50
2023-05-10T04:55:11.413Z,1.38
2023-05-10T04:56:15.275Z,1.45
2023-05-10T04:57:18.212Z,1.98
2023-05-10T04:58:22.138Z,2.17
2023-05-10T04:59:25.142Z,1.67
2023-05-10T05:00:28.984Z,1.60
2023-05-10T05:01:34.102Z,1.55
2023-05-10T05:02:37.070Z,1.40
2023-05-10T05:03:40.970Z,1.60
2023-05-10T05:04:43.716Z,1.60
2023-05-10T05:05:47.751Z,1.40
2023-05-10T05:06:52.971Z,1.40
2023-05-10T05:07:57.614Z,1.40
2023-05-10T05:09:02.004Z,1.48
2023-05-10T05:10:06.844Z,1.20
2023-05-10T05:11:09.524Z,1.23
2023-05-10T05:12:15.418Z,1.27
2023-05-10T05:13:18.307Z,1.27
2023-05-10T05:14:22.361Z,2.00
2023-05-10T05:15:25.144Z,1.20
2023-05-10T05:16:29.712Z,1.88
2023-05-10T05:17:32.787Z,1.40
2023-05-10T05:18:36.748Z,1.20
2023-05-10T05:19:39.382Z,1.40
2023-05-10T05:20:43.221Z,1.30
2023-05-10T05:21:46.085Z,1.30
2023-05-10T05:22:50.136Z,1.50
2023-05-10T05:23:52.988Z,1.50
2023-05-10T05:24:59.400Z,1.40
2023-05-10T05:26:03.088Z,1.40
2023-05-10T05:27:07.085Z,1.50
2023-05-10T05:28:09.996Z,1.65
2023-05-10T05:29:13.704Z,1.60
2023-05-10T05:31:20.567Z,1.52
2023-05-10T05:32:23.523Z,1.27
2023-05-10T05:33:27.296Z,1.40
2023-05-10T05:34:30.200Z,1.30
2023-05-10T05:35:33.844Z,1.30
2023-05-10T05:36:39.500Z,1.25
2023-05-10T05:37:42.312Z,1.50
2023-05-10T05:38:46.353Z,1.20
2023-05-10T05:39:49.136Z,1.17
2023-05-10T05:40:54.714Z,1.30
2023-05-10T05:41:57.340Z,1.27
2023-05-10T05:43:01.189Z,1.35
2023-05-10T05:44:03.979Z,1.20
2023-05-10T05:45:10.106Z,1.27
2023-05-10T05:46:13.868Z,1.70
2023-05-10T05:47:16.837Z,1.30
2023-05-10T05:48:20.591Z,1.40
2023-05-10T05:49:23.305Z,1.60
2023-05-10T05:50:27.216Z,1.30
2023-05-10T05:51:30.028Z,1.48
2023-05-10T05:52:33.702Z,1.50
2023-05-10T05:53:36.829Z,1.50
2023-05-10T05:54:40.690Z,1.40
2023-05-10T05:55:54.913Z,1.20
2023-05-10T05:57:01.067Z,1.15
2023-05-10T05:58:04.316Z,1.25
2023-05-10T05:59:08.445Z,1.25
2023-05-10T06:00:13.050Z,1.17
2023-05-10T06:01:15.601Z,1.30
2023-05-10T06:02:19.382Z,1.35
2023-05-10T06:03:23.551Z,1.20
2023-05-10T06:04:26.525Z,1.23
2023-05-10T06:05:30.386Z,1.23
2023-05-10T06:06:34.591Z,1.20
2023-05-10T06:07:37.460Z,1.30
2023-05-10T06:08:41.161Z,1.17
2023-05-10T06:09:43.973Z,1.30
2023-05-10T06:10:47.774Z,1.50
2023-05-10T06:11:51.828Z,1.17
2023-05-10T06:12:55.748Z,1.40
2023-05-10T06:13:58.824Z,1.30
2023-05-10T06:15:03.127Z,1.20
2023-05-10T06:16:07.752Z,1.60
2023-05-10T06:17:11.610Z,1.30
2023-05-10T06:18:14.242Z,1.52
2023-05-10T06:19:18.450Z,1.25
2023-05-10T06:20:21.400Z,1.50
2023-05-10T06:21:25.378Z,1.45
2023-05-10T06:22:29.245Z,1.50
2023-05-10T06:23:32.082Z,1.35
2023-05-10T06:24:35.928Z,1.30
2023-05-10T06:25:40.153Z,1.50
2023-05-10T06:26:43.823Z,1.40
2023-05-10T06:27:51.085Z,1.27
2023-05-10T06:28:57.348Z,1.83
2023-05-10T06:30:11.820Z,1.85
2023-05-10T06:31:17.380Z,1.95
2023-05-10T06:32:20.249Z,1.20
2023-05-10T06:33:23.889Z,1.50
2023-05-10T06:34:26.896Z,1.42
2023-05-10T06:35:31.108Z,1.40
2023-05-10T06:36:33.922Z,1.60
2023-05-10T06:37:37.628Z,1.50
2023-05-10T06:38:40.607Z,1.38
2023-05-10T06:39:44.394Z,1.60
2023-05-10T06:40:47.136Z,1.60
2023-05-10T06:41:51.327Z,1.60
2023-05-10T06:42:58.248Z,1.35
2023-05-10T06:44:00.847Z,1.60
2023-05-10T06:45:05.181Z,1.73
2023-05-10T06:46:09.442Z,1.52
2023-05-10T06:47:13.306Z,1.50
2023-05-10T06:48:16.078Z,1.27
2023-05-10T06:49:20.241Z,1.42
2023-05-10T06:50:22.978Z,1.50
2023-05-10T06:51:27.286Z,1.50
2023-05-10T06:52:30.187Z,1.65
2023-05-10T06:53:34.128Z,1.50
2023-05-10T06:54:36.996Z,1.52
2023-05-10T06:55:40.902Z,1.83
2023-05-10T06:56:43.536Z,1.67
2023-05-10T06:57:47.644Z,1.42
2023-05-10T06:58:51.908Z,1.60
2023-05-10T06:59:56.926Z,1.67
2023-05-10T07:01:05.550Z,1.58
2023-05-10T07:02:08.661Z,1.50
2023-05-10T07:03:12.727Z,1.70
2023-05-10T07:04:15.731Z,1.42
2023-05-10T07:05:20.082Z,1.60
2023-05-10T07:06:32.964Z,1.50
2023-05-10T07:07:37.561Z,1.40
2023-05-10T07:08:41.603Z,1.60
2023-05-10T07:09:44.318Z,2.35
2023-05-10T07:10:48.389Z,1.38
2023-05-10T07:11:51.093Z,1.50
2023-05-10T07:12:55.094Z,1.77
2023-05-10T07:14:02.178Z,1.70
2023-05-10T07:15:06.905Z,1.50
2023-05-10T07:16:10.120Z,1.67
2023-05-10T07:17:14.454Z,1.40
2023-05-10T07:18:18.395Z,1.58
2023-05-10T07:19:23.076Z,1.60
2023-05-10T07:20:26.778Z,1.77
2023-05-10T07:21:30.762Z,1.60
2023-05-10T07:22:34.948Z,1.70
2023-05-10T07:23:38.715Z,1.75
2023-05-10T07:24:42.097Z,1.58
2023-05-10T07:26:51.407Z,1.52
2023-05-10T07:27:55.324Z,2.25
2023-05-10T07:28:58.032Z,1.58
2023-05-10T07:30:04.058Z,1.42
2023-05-10T07:31:08.564Z,1.70
2023-05-10T07:32:11.841Z,1.65
2023-05-10T07:33:16.942Z,1.50
2023-05-10T07:34:19.626Z,1.90
2023-05-10T07:35:23.656Z,1.58
2023-05-10T07:36:26.415Z,1.55
2023-05-10T07:37:30.096Z,1.70
2023-05-10T07:38:33.036Z,1.50
2023-05-10T07:39:36.704Z,1.58
2023-05-10T07:40:40.416Z,1.80
2023-05-10T07:41:44.712Z,1.50
2023-05-10T07:42:47.387Z,1.70
2023-05-10T07:43:51.437Z,1.60
2023-05-10T07:44:55.413Z,1.80
2023-05-10T07:46:01.157Z,1.65
2023-05-10T07:47:05.558Z,1.70
2023-05-10T07:48:09.733Z,1.70
2023-05-10T07:49:12.532Z,1.60
2023-05-10T07:50:16.629Z,1.80
2023-05-10T07:51:19.551Z,1.65
2023-05-10T07:52:23.231Z,1.35
2023-05-10T07:53:27.501Z,1.48
2023-05-10T07:54:31.318Z,1.80
2023-05-10T07:55:34.417Z,1.60
2023-05-10T07:56:38.233Z,1.60
2023-05-10T07:57:41.335Z,1.67
2023-05-10T07:58:45.044Z,1.40
2023-05-10T07:59:47.869Z,1.67
2023-05-10T08:00:51.814Z,1.70
2023-05-10T08:01:57.525Z,1.70
2023-05-10T08:03:00.542Z,1.48
2023-05-10T08:04:07.837Z,1.75
2023-05-10T08:05:11.886Z,2.13
2023-05-10T08:06:16.505Z,1.70
2023-05-10T08:07:20.453Z,1.73
2023-05-10T08:08:23.972Z,1.58
2023-05-10T08:09:27.685Z,1.58
2023-05-10T08:10:30.725Z,1.88
2023-05-10T08:11:35.218Z,1.40
2023-05-10T08:12:39.105Z,1.60
2023-05-10T08:13:43.055Z,1.55
2023-05-10T08:14:47.109Z,1.80
2023-05-10T08:15:50.412Z,1.83
2023-05-10T08:16:54.310Z,1.60
2023-05-10T08:19:02.043Z,1.40
2023-05-10T08:20:06.899Z,1.63
2023-05-10T08:21:10.219Z,1.60
2023-05-10T08:22:13.965Z,1.60
2023-05-10T08:23:17.108Z,1.52
2023-05-10T08:24:20.871Z,1.65
2023-05-10T08:25:23.563Z,1.38
2023-05-10T08:26:28.061Z,1.85
2023-05-10T08:27:30.765Z,1.55
2023-05-10T08:28:34.719Z,1.50
2023-05-10T08:29:49.657Z,1.50
2023-05-10T08:30:54.403Z,1.65
2023-05-10T08:31:58.060Z,1.35
2023-05-10T08:33:02.403Z,1.40
2023-05-10T08:34:06.147Z,1.63
2023-05-10T08:35:09.106Z,1.60
2023-05-10T08:36:15.375Z,1.70
2023-05-10T08:37:18.199Z,1.80
2023-05-10T08:38:21.915Z,1.50
2023-05-10T08:39:30.225Z,1.55
2023-05-10T08:40:34.598Z,1.80
2023-05-10T08:41:41.529Z,2.03
2023-05-10T08:42:53.660Z,1.58
2023-05-10T08:43:58.201Z,1.60
2023-05-10T08:45:01.306Z,1.75
2023-05-10T08:46:11.789Z,1.85
2023-05-10T08:47:18.041Z,1.85
2023-05-10T08:48:26.029Z,2.22
2023-05-10T08:49:33.877Z,1.50
2023-05-10T08:50:39.218Z,1.80
2023-05-10T08:51:46.163Z,1.65
2023-05-10T08:52:53.916Z,2.65
2023-05-10T08:53:57.920Z,1.70
2023-05-10T08:55:01.912Z,1.52
2023-05-10T08:56:06.679Z,1.50
2023-05-10T08:57:09.489Z,1.48
2023-05-10T08:58:13.201Z,1.60
2023-05-10T08:59:17.128Z,1.63
2023-05-10T09:00:23.171Z,1.60
2023-05-10T09:01:29.776Z,1.85
2023-05-10T09:02:34.037Z,1.50
2023-05-10T09:03:41.369Z,1.70
2023-05-10T09:04:44.132Z,1.60
2023-05-10T09:05:48.712Z,1.60
2023-05-10T09:06:52.023Z,1.60
2023-05-10T09:07:55.846Z,2.10
2023-05-10T09:08:58.656Z,2.20
2023-05-10T09:10:02.930Z,1.90
2023-05-10T09:11:06.127Z,1.92
2023-05-10T09:12:12.717Z,1.75
2023-05-10T09:13:16.544Z,1.67
2023-05-10T09:14:22.332Z,1.80
2023-05-10T09:15:25.693Z,1.75
2023-05-10T09:16:29.784Z,1.70
2023-05-10T09:17:32.921Z,1.60
2023-05-10T09:18:38.551Z,1.90
2023-05-10T09:19:42.265Z,2.05
2023-05-10T09:20:46.188Z,2.05
2023-05-10T09:21:50.197Z,1.92
2023-05-10T09:22:54.060Z,1.73
2023-05-10T09:23:57.689Z,1.73
2023-05-10T09:25:08.835Z,2.30
2023-05-10T09:26:12.828Z,1.70
2023-05-10T09:27:15.629Z,5.47
2023-05-10T09:28:19.591Z,1.60
2023-05-10T09:29:22.395Z,2.25
2023-05-10T09:30:28.673Z,1.50
2023-05-10T09:31:52.202Z,1.80
2023-05-10T09:32:57.144Z,1.80
2023-05-10T09:34:02.439Z,1.90
2023-05-10T09:35:10.358Z,1.90
2023-05-10T09:36:13.899Z,1.55
2023-05-10T09:37:17.553Z,1.67
2023-05-10T09:38:20.348Z,1.63
2023-05-10T09:39:33.392Z,1.58
2023-05-10T09:40:37.704Z,1.58
2023-05-10T09:41:44.110Z,1.90
2023-05-10T09:42:54.928Z,1.70
2023-05-10T09:43:58.924Z,2.30
2023-05-10T09:45:04.082Z,1.92
2023-05-10T09:46:12.436Z,1.65
2023-05-10T09:47:20.352Z,1.80
2023-05-10T09:48:26.492Z,2.13
2023-05-10T09:49:31.969Z,1.60
2023-05-10T09:50:35.774Z,1.70
2023-05-10T09:51:38.668Z,2.42
2023-05-10T09:52:54.313Z,1.60
2023-05-10T09:54:12.172Z,1.60
2023-05-10T09:55:16.600Z,1.60
2023-05-10T09:56:35.772Z,1.63
2023-05-10T09:57:39.540Z,1.70
2023-05-10T09:58:43.500Z,2.08
2023-05-10T09:59:46.443Z,2.00
2023-05-10T10:00:53.014Z,1.70
2023-05-10T10:01:58.442Z,1.60
2023-05-10T10:03:03.348Z,1.80
2023-05-10T10:04:07.299Z,1.88
2023-05-10T10:05:14.767Z,2.13
2023-05-10T10:06:29.651Z,1.50
2023-05-10T10:07:35.433Z,1.70
2023-05-10T10:08:38.612Z,1.75
2023-05-10T10:09:42.685Z,1.75
2023-05-10T10:10:47.300Z,1.60
2023-05-10T10:11:50.275Z,1.40
2023-05-10T10:12:54.305Z,2.05
2023-05-10T10:13:57.540Z,1.70
2023-05-10T10:15:02.890Z,2.10
2023-05-10T10:16:10.576Z,1.65
2023-05-10T10:17:15.330Z,1.92
2023-05-10T10:18:20.944Z,1.90
2023-05-10T10:19:25.032Z,2.00
2023-05-10T10:20:31.189Z,1.65
2023-05-10T10:21:34.418Z,2.00
2023-05-10T10:22:39.335Z,1.77
2023-05-10T10:23:42.172Z,1.67
2023-05-10T10:24:45.966Z,1.70
2023-05-10T10:25:50.974Z,1.70
2023-05-10T10:26:56.679Z,2.13
2023-05-10T10:28:11.768Z,2.40
2023-05-10T10:29:23.234Z,1.50
2023-05-10T10:30:31.716Z,1.50
2023-05-10T10:31:41.522Z,1.50
2023-05-10T10:33:16.851Z,1.70
2023-05-10T10:34:32.581Z,2.05
2023-05-10T10:35:38.300Z,1.55
2023-05-10T10:36:48.017Z,1.75
2023-05-10T10:37:53.794Z,1.90
2023-05-10T10:39:00.811Z,1.83
2023-05-10T10:40:28.606Z,2.05
2023-05-10T10:41:33.459Z,1.50
2023-05-10T10:42:51.129Z,1.50
2023-05-10T10:44:25.883Z,1.88
2023-05-10T10:46:33.725Z,1.42
2023-05-10T10:47:38.630Z,1.60
2023-05-10T10:48:42.200Z,1.50
2023-05-10T10:49:52.800Z,1.60
2023-05-10T10:51:01.055Z,2.05
2023-05-10T10:52:29.937Z,1.77
2023-05-10T10:53:34.358Z,1.58
2023-05-10T10:54:37.344Z,1.90
2023-05-10T10:55:49.357Z,1.70
2023-05-10T10:57:14.346Z,1.63
2023-05-10T10:58:33.684Z,1.50
2023-05-10T10:59:36.643Z,2.03
2023-05-10T11:00:42.078Z,2.08
2023-05-10T11:01:46.452Z,2.05
2023-05-10T11:02:51.015Z,1.77
2023-05-10T11:04:20.144Z,1.92
2023-05-10T11:05:43.024Z,2.17
2023-05-10T11:06:47.358Z,1.98
2023-05-10T11:07:58.072Z,1.80
2023-05-10T11:09:02.499Z,2.22
2023-05-10T11:10:08.869Z,2.08
2023-05-10T11:11:16.909Z,1.85
2023-05-10T11:12:19.860Z,2.13
2023-05-10T11:13:33.987Z,1.58
2023-05-10T11:14:37.897Z,1.75
2023-05-10T11:15:50.838Z,1.95
2023-05-10T11:16:54.958Z,1.85
2023-05-10T11:17:57.758Z,1.83
2023-05-10T11:19:04.245Z,1.50
2023-05-10T11:20:11.230Z,1.30
2023-05-10T11:21:17.843Z,1.80
2023-05-10T11:22:22.138Z,1.80
2023-05-10T11:23:25.938Z,1.60
2023-05-10T11:24:29.668Z,1.77
2023-05-10T11:25:33.414Z,1.80
2023-05-10T11:26:38.438Z,1.70
2023-05-10T11:27:43.485Z,1.60
2023-05-10T11:28:48.381Z,1.83
2023-05-10T11:29:54.548Z,1.80
2023-05-10T11:30:59.113Z,1.55
2023-05-10T11:32:03.604Z,1.65
2023-05-10T11:33:06.836Z,2.05
2023-05-10T11:34:10.503Z,1.58
2023-05-10T11:35:14.401Z,1.60
2023-05-10T11:36:19.884Z,1.60
2023-05-10T11:37:25.616Z,1.70
2023-05-10T11:38:29.459Z,1.73
2023-05-10T11:39:33.652Z,1.90
2023-05-10T11:40:37.611Z,1.73
2023-05-10T11:41:43.073Z,1.67
2023-05-10T11:42:46.491Z,1.55
2023-05-10T11:43:52.668Z,1.50
2023-05-10T11:44:55.615Z,1.70
2023-05-10T11:46:02.137Z,1.52
2023-05-10T11:47:04.869Z,1.60
2023-05-10T11:48:08.920Z,1.75
2023-05-10T11:49:14.524Z,1.70
2023-05-10T11:50:19.916Z,1.40
2023-05-10T11:51:24.050Z,1.90
2023-05-10T11:52:30.088Z,1.42
2023-05-10T11:53:33.911Z,1.58
2023-05-10T11:54:37.963Z,1.63
2023-05-10T11:55:41.596Z,1.42
2023-05-10T11:56:46.504Z,1.60
2023-05-10T11:57:53.083Z,1.70
2023-05-10T11:58:58.188Z,2.15
2023-05-10T12:00:02.938Z,1.70
2023-05-10T12:02:15.456Z,1.80
2023-05-10T12:03:20.285Z,1.85
2023-05-10T12:04:24.140Z,1.52
2023-05-10T12:05:28.434Z,1.70
2023-05-10T12:06:37.780Z,2.17
2023-05-10T12:07:42.174Z,1.85
2023-05-10T12:08:47.933Z,1.63
2023-05-10T12:10:05.575Z,1.63
2023-05-10T12:11:12.060Z,1.70
2023-05-10T12:12:18.544Z,1.60
2023-05-10T12:13:23.326Z,1.63
2023-05-10T12:14:26.257Z,1.65
2023-05-10T12:15:30.467Z,1.60
2023-05-10T12:16:34.871Z,2.10
2023-05-10T12:17:41.353Z,1.83
2023-05-10T12:18:47.464Z,1.77
2023-05-10T12:19:50.405Z,2.03
2023-05-10T12:20:55.582Z,1.65
2023-05-10T12:21:59.327Z,1.80
2023-05-10T12:23:04.859Z,2.35
2023-05-10T12:24:09.988Z,1.70
2023-05-10T12:25:12.749Z,1.70
2023-05-10T12:26:17.274Z,1.52
2023-05-10T12:28:41.653Z,1.50
2023-05-10T12:29:45.989Z,1.60
2023-05-10T12:30:49.703Z,1.63
2023-05-10T12:31:54.259Z,1.70
2023-05-10T12:33:03.465Z,1.90
2023-05-10T12:34:07.268Z,2.22
2023-05-10T12:35:10.215Z,1.55
2023-05-10T12:36:16.031Z,1.73
2023-05-10T12:37:18.901Z,2.15
2023-05-10T12:38:32.053Z,1.92
2023-05-10T12:39:43.359Z,1.60
2023-05-10T12:40:47.565Z,1.48
2023-05-10T12:41:50.193Z,1.77
2023-05-10T12:42:54.646Z,1.63
2023-05-10T12:43:57.263Z,1.58
2023-05-10T12:45:01.005Z,1.75
2023-05-10T12:46:09.576Z,1.90
2023-05-10T12:47:12.568Z,1.70
2023-05-10T12:48:16.778Z,1.90
2023-05-10T12:49:20.845Z,1.60
2023-05-10T12:50:25.545Z,1.80
2023-05-10T12:51:29.506Z,1.70
2023-05-10T12:52:33.395Z,1.38
2023-05-10T12:53:40.472Z,1.88
2023-05-10T12:54:44.237Z,1.50
2023-05-10T12:55:48.136Z,1.50
2023-05-10T12:56:50.897Z,1.98
2023-05-10T12:57:54.788Z,1.50
2023-05-10T12:58:57.535Z,1.30
2023-05-10T13:00:01.628Z,1.80
2023-05-10T13:01:05.339Z,1.65
2023-05-10T13:02:11.836Z,1.58
2023-05-10T13:03:15.918Z,2.13
2023-05-10T13:04:19.684Z,1.88
2023-05-10T13:05:23.595Z,1.55
2023-05-10T13:06:27.496Z,1.60
2023-05-10T13:07:31.393Z,1.67
2023-05-10T13:08:34.866Z,1.60
2023-05-10T13:09:40.056Z,1.60
2023-05-10T13:10:44.005Z,1.52
2023-05-10T13:11:49.200Z,2.00
2023-05-10T13:12:53.100Z,1.80
2023-05-10T13:13:55.727Z,1.60
2023-05-10T13:14:59.589Z,1.63
2023-05-10T13:16:02.457Z,2.00
2023-05-10T13:17:06.646Z,1.65
2023-05-10T13:18:10.818Z,1.92
2023-05-10T13:19:14.358Z,1.67
2023-05-10T13:20:18.685Z,1.95
2023-05-10T13:21:21.782Z,2.20
2023-05-10T13:22:36.468Z,1.90
2023-05-10T13:23:43.876Z,1.73
2023-05-10T13:24:49.220Z,1.73
2023-05-10T13:25:51.930Z,1.98
2023-05-10T13:26:56.096Z,1.45
2023-05-10T13:28:00.074Z,2.58
2023-05-10T13:29:03.956Z,1.73
2023-05-10T13:30:09.343Z,1.50
2023-05-10T13:31:13.191Z,1.65
2023-05-10T13:32:16.158Z,1.63
2023-05-10T13:33:20.044Z,1.65
2023-05-10T13:34:24.072Z,1.88
2023-05-10T13:35:26.859Z,1.85
2023-05-10T13:36:30.895Z,1.48
2023-05-10T13:37:37.659Z,1.60
2023-05-10T13:38:40.903Z,1.80
2023-05-10T13:39:44.666Z,1.92
2023-05-10T13:40:49.304Z,1.90
2023-05-10T13:41:53.858Z,1.60
2023-05-10T13:42:57.182Z,1.70
2023-05-10T13:44:00.987Z,1.60
2023-05-10T13:45:05.287Z,1.85
2023-05-10T13:46:09.123Z,1.58
2023-05-10T13:47:13.298Z,2.33
2023-05-10T13:48:16.257Z,1.80
2023-05-10T13:49:20.054Z,1.60
2023-05-10T13:50:22.975Z,1.70
2023-05-10T13:51:26.836Z,1.80
2023-05-10T13:52:30.882Z,1.73
2023-05-10T13:53:33.643Z,1.67
2023-05-10T13:54:37.348Z,3.35
2023-05-10T13:55:40.551Z,1.75
2023-05-10T13:56:45.947Z,1.50
2023-05-10T13:57:49.729Z,1.63
2023-05-10T13:58:52.473Z,1.80
2023-05-10T13:59:57.618Z,1.95
2023-05-10T14:01:01.574Z,2.30
2023-05-10T14:02:06.455Z,2.00
2023-05-10T14:03:10.536Z,1.70
2023-05-10T14:04:14.435Z,1.73
2023-05-10T14:05:19.318Z,1.63
2023-05-10T14:06:26.257Z,1.75
2023-05-10T14:07:28.908Z,2.00
2023-05-10T14:08:32.882Z,1.70
2023-05-10T14:09:35.615Z,1.60
2023-05-10T14:10:39.401Z,1.70
2023-05-10T14:11:46.224Z,1.90
2023-05-10T14:12:49.133Z,1.90
2023-05-10T14:13:52.975Z,1.70
2023-05-10T14:14:55.870Z,1.70
2023-05-10T14:16:01.839Z,1.85
2023-05-10T14:17:04.883Z,1.77
2023-05-10T14:18:08.778Z,1.70
2023-05-10T14:19:11.923Z,1.65
2023-05-10T14:20:15.553Z,2.10
2023-05-10T14:21:19.745Z,1.90
2023-05-10T14:22:23.261Z,1.75
2023-05-10T14:23:27.436Z,1.60
2023-05-10T14:24:31.233Z,1.63
2023-05-10T14:25:34.706Z,1.50
2023-05-10T14:26:38.486Z,1.58
2023-05-10T14:27:43.941Z,1.70
2023-05-10T14:28:46.613Z,1.70
2023-05-10T14:29:50.544Z,1.65
2023-05-10T14:30:54.312Z,1.63
2023-05-10T14:31:57.069Z,1.70
2023-05-10T14:33:02.411Z,1.92
2023-05-10T14:34:06.861Z,1.90
2023-05-10T14:35:12.927Z,1.50
2023-05-10T14:36:17.556Z,1.75
2023-05-10T14:37:20.425Z,1.80
2023-05-10T14:38:24.365Z,2.08
2023-05-10T14:39:30.691Z,1.92
2023-05-10T14:40:33.553Z,1.73
2023-05-10T14:41:37.523Z,1.88
2023-05-10T14:42:40.472Z,1.75
2023-05-10T14:43:45.790Z,2.00
2023-05-10T14:44:49.860Z,1.83
2023-05-10T14:45:53.730Z,1.55
2023-05-10T14:46:56.902Z,1.67
2023-05-10T14:48:00.786Z,1.80